createdAt,value
2018-01-26T00:02:10.380Z,7.60
2018-01-26T00:04:37.927Z,7.60
2018-01-26T00:07:05.791Z,7.60
2018-01-26T00:09:33.325Z,7.50
2018-01-26T00:12:00.897Z,7.50
2018-01-26T00:14:28.472Z,7.50
2018-01-26T00:16:55.992Z,7.50
2018-01-26T00:19:23.580Z,7.50
2018-01-26T00:21:51.109Z,7.50
2018-01-26T00:24:18.672Z,7.50
2018-01-26T00:26:46.965Z,7.40
2018-01-26T00:29:14.632Z,7.40
2018-01-26T00:31:42.187Z,7.40
2018-01-26T00:34:09.715Z,7.50
2018-01-26T00:36:38.045Z,7.40
2018-01-26T00:39:05.569Z,7.40
2018-01-26T00:41:33.165Z,7.40
2018-01-26T00:44:00.693Z,7.40
2018-01-26T00:46:28.360Z,7.40
2018-01-26T00:48:56.226Z,7.40
2018-01-26T00:51:23.810Z,7.40
2018-01-26T00:53:51.358Z,7.40
2018-01-26T00:56:19.072Z,7.30
2018-01-26T00:58:47.416Z,7.30
2018-01-26T01:01:14.968Z,7.30
2018-01-26T01:03:42.607Z,7.20
2018-01-26T01:06:10.147Z,7.20
2018-01-26T01:08:38.141Z,7.20
2018-01-26T01:11:05.668Z,7.20
2018-01-26T01:13:33.964Z,7.20
2018-01-26T01:16:01.539Z,7.20
2018-01-26T01:18:29.094Z,7.20
2018-01-26T01:20:56.931Z,7.20
2018-01-26T01:23:25.223Z,7.10
2018-01-26T01:25:52.756Z,7.20
2018-01-26T01:28:20.320Z,7.20
2018-01-26T01:30:47.868Z,7.20
2018-01-26T01:33:16.199Z,7.10
2018-01-26T01:35:43.723Z,7.10
2018-01-26T01:38:12.016Z,7.10
2018-01-26T01:40:39.638Z,7.10
2018-01-26T01:43:07.192Z,7.10
2018-01-26T01:45:35.128Z,7.10
2018-01-26T01:48:02.659Z,7.10
2018-01-26T01:50:30.910Z,7.10
2018-01-26T01:52:59.236Z,7.10
2018-01-26T01:55:26.768Z,7.00
2018-01-26T01:57:54.331Z,7.10
2018-01-26T02:00:21.860Z,7.10
2018-01-26T02:02:49.432Z,7.10
2018-01-26T02:05:17.723Z,7.10
2018-01-26T02:07:45.730Z,7.00
2018-01-26T02:10:13.429Z,7.00
2018-01-26T02:12:41.726Z,7.00
2018-01-26T02:15:09.289Z,7.00
2018-01-26T02:17:36.844Z,7.00
2018-01-26T02:20:04.423Z,7.00
2018-01-26T02:22:31.956Z,7.00
2018-01-26T02:25:00.579Z,7.00
2018-01-26T02:27:28.307Z,7.00
2018-01-26T02:29:55.855Z,7.00
2018-01-26T02:32:23.431Z,7.00
2018-01-26T02:34:51.735Z,7.00
2018-01-26T02:37:19.466Z,7.10
2018-01-26T02:39:47.005Z,7.10
2018-01-26T02:42:14.579Z,7.10
2018-01-26T02:44:42.113Z,7.10
2018-01-26T02:47:09.825Z,7.00
2018-01-26T02:49:37.348Z,7.10
2018-01-26T02:52:04.889Z,7.00
2018-01-26T02:54:32.567Z,7.00
2018-01-26T02:57:00.924Z,7.00
2018-01-26T02:59:28.505Z,7.00
2018-01-26T03:01:56.058Z,7.00
2018-01-26T03:04:25.136Z,7.00
2018-01-26T03:06:52.914Z,7.00
2018-01-26T03:09:20.503Z,7.00
2018-01-26T03:11:48.041Z,7.00
2018-01-26T03:14:15.581Z,7.00
2018-01-26T03:16:43.161Z,7.00
2018-01-26T03:19:11.480Z,6.90
2018-01-26T03:21:39.045Z,6.90
2018-01-26T03:24:06.744Z,6.90
2018-01-26T03:26:34.592Z,6.90
2018-01-26T03:29:02.146Z,6.90
2018-01-26T03:31:29.692Z,6.80
2018-01-26T03:33:57.259Z,6.80
2018-01-26T03:36:24.798Z,6.80
2018-01-26T03:38:52.366Z,6.80
2018-01-26T03:41:19.928Z,6.80
2018-01-26T03:43:47.812Z,6.80
2018-01-26T03:46:15.377Z,6.80
2018-01-26T03:48:42.926Z,6.80
2018-01-26T03:51:11.291Z,6.80
2018-01-26T03:53:38.833Z,6.80
2018-01-26T03:56:06.532Z,6.80
2018-01-26T03:58:34.100Z,6.80
2018-01-26T04:01:01.674Z,6.70
2018-01-26T04:03:29.206Z,6.70
2018-01-26T04:05:57.053Z,6.70
2018-01-26T04:08:25.053Z,6.70
2018-01-26T04:10:52.615Z,6.70
2018-01-26T04:13:22.003Z,6.70
2018-01-26T04:15:49.541Z,6.70
2018-01-26T04:18:17.148Z,6.70
2018-01-26T04:20:44.688Z,6.70
2018-01-26T04:23:12.292Z,6.70
2018-01-26T04:25:40.593Z,6.70
2018-01-26T04:28:08.180Z,6.70
2018-01-26T04:30:35.730Z,6.70
2018-01-26T04:33:03.256Z,6.70
2018-01-26T04:35:30.824Z,6.70
2018-01-26T04:37:58.358Z,6.70
2018-01-26T04:40:26.141Z,6.70
2018-01-26T04:42:53.681Z,6.70
2018-01-26T04:45:21.610Z,6.70
2018-01-26T04:47:49.137Z,6.70
2018-01-26T04:50:16.681Z,6.70
2018-01-26T04:52:44.257Z,6.70
2018-01-26T04:55:11.793Z,6.70
2018-01-26T04:57:39.366Z,6.70
2018-01-26T05:00:06.901Z,6.70
2018-01-26T05:02:34.502Z,6.70
2018-01-26T05:05:02.055Z,6.60
2018-01-26T05:07:29.777Z,6.60
2018-01-26T05:09:57.349Z,6.70
2018-01-26T05:12:24.880Z,6.70
2018-01-26T05:14:52.458Z,6.70
2018-01-26T05:17:20.753Z,6.70
2018-01-26T05:19:48.309Z,6.70
2018-01-26T05:22:16.661Z,6.70
2018-01-26T05:24:44.213Z,6.70
2018-01-26T05:27:11.802Z,6.70
2018-01-26T05:29:39.367Z,6.70
2018-01-26T05:32:07.700Z,6.80
2018-01-26T05:34:35.234Z,6.70
2018-01-26T05:37:03.120Z,6.80
2018-01-26T05:39:30.669Z,6.80
2018-01-26T05:41:58.217Z,6.80
2018-01-26T05:44:25.809Z,6.80
2018-01-26T05:46:53.349Z,6.80
2018-01-26T05:49:20.930Z,6.80
2018-01-26T05:51:48.464Z,6.80
2018-01-26T05:54:16.033Z,6.80
2018-01-26T05:56:43.579Z,6.80
2018-01-26T05:59:11.180Z,6.70
2018-01-26T06:01:38.716Z,6.70
2018-01-26T06:04:06.295Z,6.70
2018-01-26T06:06:34.133Z,6.70
2018-01-26T06:09:01.674Z,6.70
2018-01-26T06:11:29.249Z,6.70
2018-01-26T06:13:56.798Z,6.70
2018-01-26T06:16:24.783Z,6.70
2018-01-26T06:18:52.506Z,6.60
2018-01-26T06:21:20.108Z,6.60
2018-01-26T06:23:47.769Z,6.70
2018-01-26T06:26:15.308Z,6.60
2018-01-26T06:28:42.885Z,6.60
2018-01-26T06:31:10.545Z,6.60
2018-01-26T06:33:38.112Z,6.60
2018-01-26T06:36:05.653Z,6.60
2018-01-26T06:38:33.690Z,6.60
2018-01-26T06:41:01.217Z,6.70
2018-01-26T06:43:28.748Z,6.70
2018-01-26T06:45:56.317Z,6.70
2018-01-26T06:48:24.598Z,6.70
2018-01-26T06:50:52.164Z,6.70
2018-01-26T06:53:19.702Z,6.70
2018-01-26T06:55:47.268Z,6.70
2018-01-26T06:58:14.793Z,6.70
2018-01-26T07:00:42.913Z,6.70
2018-01-26T07:03:10.448Z,6.70
2018-01-26T07:05:38.005Z,6.70
2018-01-26T07:08:05.758Z,6.70
2018-01-26T07:10:33.301Z,6.80
2018-01-26T07:13:00.869Z,6.80
2018-01-26T07:15:28.394Z,6.80
2018-01-26T07:17:55.997Z,6.80
2018-01-26T07:20:23.531Z,6.80
2018-01-26T07:22:51.194Z,6.80
2018-01-26T07:25:18.779Z,6.80
2018-01-26T07:27:46.341Z,6.80
2018-01-26T07:30:13.940Z,6.90
2018-01-26T07:32:41.482Z,6.90
2018-01-26T07:35:09.063Z,6.90
2018-01-26T07:37:36.605Z,6.90
2018-01-26T07:40:04.136Z,7.00
2018-01-26T07:42:31.708Z,7.00
2018-01-26T07:44:59.251Z,7.00
2018-01-26T07:47:26.828Z,7.00
2018-01-26T07:49:54.375Z,7.00
2018-01-26T07:52:21.967Z,7.00
2018-01-26T07:54:49.656Z,7.10
2018-01-26T07:57:18.005Z,7.10
2018-01-26T07:59:45.550Z,7.10
2018-01-26T08:02:13.162Z,7.10
2018-01-26T08:04:40.756Z,7.10
2018-01-26T08:07:08.293Z,7.20
2018-01-26T08:09:35.880Z,7.20
2018-01-26T08:12:03.415Z,7.20
2018-01-26T08:14:31.091Z,7.20
2018-01-26T08:16:58.626Z,7.30
2018-01-26T08:19:26.958Z,7.30
2018-01-26T08:21:54.492Z,7.30
2018-01-26T08:24:22.036Z,7.30
2018-01-26T08:26:49.792Z,7.40
2018-01-26T08:29:17.332Z,7.40
2018-01-26T08:31:44.944Z,7.40
2018-01-26T08:34:12.529Z,7.40
2018-01-26T08:36:41.239Z,7.40
2018-01-26T08:39:09.537Z,7.40
2018-01-26T08:41:37.078Z,7.40
2018-01-26T08:44:04.721Z,7.40
2018-01-26T08:46:32.261Z,7.40
2018-01-26T08:48:59.837Z,7.40
2018-01-26T08:51:27.372Z,7.50
2018-01-26T08:53:55.031Z,7.50
2018-01-26T08:56:22.576Z,7.50
2018-01-26T08:58:50.220Z,7.50
2018-01-26T09:01:17.765Z,7.60
2018-01-26T09:03:45.350Z,7.60
2018-01-26T09:06:12.953Z,7.60
2018-01-26T09:08:40.497Z,7.60
2018-01-26T09:11:08.093Z,7.60
2018-01-26T09:13:36.801Z,7.60
2018-01-26T09:16:04.583Z,7.60
2018-01-26T09:18:32.128Z,7.60
2018-01-26T09:20:59.674Z,7.70
2018-01-26T09:23:27.350Z,7.60
2018-01-26T09:25:54.889Z,7.60
2018-01-26T09:28:23.236Z,7.70
2018-01-26T09:30:51.008Z,7.70
2018-01-26T09:33:18.758Z,7.70
2018-01-26T09:35:46.301Z,7.80
2018-01-26T09:38:13.873Z,7.80
2018-01-26T09:40:41.417Z,7.80
2018-01-26T09:43:08.952Z,7.90
2018-01-26T09:45:36.716Z,7.90
2018-01-26T09:48:04.254Z,7.90
2018-01-26T09:50:32.606Z,8.00
2018-01-26T09:53:00.241Z,8.00
2018-01-26T09:55:27.836Z,8.00
2018-01-26T09:57:56.974Z,8.10
2018-01-26T10:00:24.556Z,8.10
2018-01-26T10:02:52.092Z,8.10
2018-01-26T10:05:20.024Z,8.20
2018-01-26T10:07:47.633Z,8.20
2018-01-26T10:10:15.169Z,8.30
2018-01-26T10:12:42.744Z,8.30
2018-01-26T10:15:10.284Z,8.40
2018-01-26T10:17:38.449Z,8.50
2018-01-26T10:20:06.750Z,8.50
2018-01-26T10:22:34.300Z,8.50
2018-01-26T10:25:01.884Z,8.50
2018-01-26T10:27:29.417Z,8.50
2018-01-26T10:29:57.118Z,8.50
2018-01-26T10:32:24.654Z,8.60
2018-01-26T10:34:52.227Z,8.60
2018-01-26T10:37:19.780Z,8.60
2018-01-26T10:39:47.358Z,8.70
2018-01-26T10:42:14.916Z,8.70
2018-01-26T10:44:42.496Z,8.70
2018-01-26T10:47:10.033Z,8.70
2018-01-26T10:49:37.569Z,8.70
2018-01-26T10:52:05.231Z,8.70
2018-01-26T10:54:32.782Z,8.70
2018-01-26T10:57:00.361Z,8.70
2018-01-26T10:59:27.908Z,8.70
2018-01-26T11:01:55.497Z,8.70
2018-01-26T11:04:23.028Z,8.70
2018-01-26T11:06:50.623Z,8.70
2018-01-26T11:09:18.182Z,8.70
2018-01-26T11:11:45.721Z,8.70
2018-01-26T11:14:13.280Z,8.70
2018-01-26T11:16:40.845Z,8.70
2018-01-26T11:19:08.433Z,8.70
2018-01-26T11:21:36.153Z,8.70
2018-01-26T11:24:03.736Z,8.70
2018-01-26T11:26:31.318Z,8.80
2018-01-26T11:28:58.849Z,8.80
2018-01-26T11:31:26.460Z,8.80
2018-01-26T11:33:54.762Z,8.80
2018-01-26T11:36:22.381Z,8.80
2018-01-26T11:38:49.932Z,8.80
2018-01-26T11:41:17.897Z,8.80
2018-01-26T11:43:45.516Z,8.80
2018-01-26T11:46:13.053Z,8.80
2018-01-26T11:48:40.649Z,8.70
2018-01-26T11:51:08.183Z,8.70
2018-01-26T11:53:35.774Z,8.70
2018-01-26T11:56:03.434Z,8.70
2018-01-26T11:58:31.029Z,8.70
2018-01-26T12:01:00.101Z,8.70
2018-01-26T12:03:27.631Z,8.70
2018-01-26T12:05:55.201Z,8.70
2018-01-26T12:08:22.748Z,8.70
2018-01-26T12:10:50.334Z,8.60
2018-01-26T12:13:17.882Z,8.70
2018-01-26T12:15:45.950Z,8.70
2018-01-26T12:18:13.493Z,8.70
2018-01-26T12:20:41.093Z,8.70
2018-01-26T12:23:08.685Z,8.70
2018-01-26T12:25:36.336Z,8.70
2018-01-26T12:28:03.912Z,8.70
2018-01-26T12:30:32.232Z,8.80
2018-01-26T12:32:59.846Z,8.80
2018-01-26T12:35:28.193Z,8.80
2018-01-26T12:37:55.758Z,8.80
2018-01-26T12:40:23.337Z,8.80
2018-01-26T12:42:50.872Z,8.80
2018-01-26T12:45:18.441Z,8.80
2018-01-26T12:47:45.992Z,8.80
2018-01-26T12:50:14.049Z,8.90
2018-01-26T12:52:41.580Z,8.80
2018-01-26T12:55:09.110Z,8.80
2018-01-26T12:57:36.685Z,8.90
2018-01-26T13:00:04.221Z,8.90
2018-01-26T13:02:31.815Z,9.00
2018-01-26T13:04:59.388Z,9.00
2018-01-26T13:07:26.998Z,9.10
2018-01-26T13:09:54.596Z,9.10
2018-01-26T13:12:22.281Z,9.10
2018-01-26T13:14:49.817Z,9.10
2018-01-26T13:17:17.368Z,9.10
2018-01-26T13:19:44.964Z,9.20
2018-01-26T13:22:12.598Z,9.20
2018-01-26T13:24:40.204Z,9.20
2018-01-26T13:27:09.251Z,9.20
2018-01-26T13:29:36.825Z,9.20
2018-01-26T13:32:04.381Z,9.20
2018-01-26T13:34:31.973Z,9.20
2018-01-26T13:36:59.514Z,9.30
2018-01-26T13:39:27.058Z,9.30
2018-01-26T13:41:54.647Z,9.30
2018-01-26T13:44:22.233Z,9.30
2018-01-26T13:46:49.865Z,9.30
2018-01-26T13:49:17.427Z,9.30
2018-01-26T13:51:45.051Z,9.40
2018-01-26T13:54:12.586Z,9.30
2018-01-26T13:56:40.128Z,9.30
2018-01-26T13:59:07.717Z,9.40
2018-01-26T14:01:35.281Z,9.30
2018-01-26T14:04:02.898Z,9.30
2018-01-26T14:06:30.409Z,9.30
2018-01-26T14:08:58.009Z,9.30
2018-01-26T14:11:25.637Z,9.30
2018-01-26T14:13:53.435Z,9.30
2018-01-26T14:16:20.799Z,9.30
2018-01-26T14:18:48.368Z,9.30
2018-01-26T14:21:16.047Z,9.30
2018-01-26T14:23:43.638Z,9.30
2018-01-26T14:26:11.228Z,9.30
2018-01-26T14:28:38.791Z,9.30
2018-01-26T14:31:06.386Z,9.30
2018-01-26T14:33:34.713Z,9.20
2018-01-26T14:36:02.277Z,9.20
2018-01-26T14:38:29.859Z,9.20
2018-01-26T14:40:57.450Z,9.30
2018-01-26T14:43:25.054Z,9.20
2018-01-26T14:45:52.607Z,9.20
2018-01-26T14:48:20.233Z,9.20
2018-01-26T14:50:48.598Z,9.20
2018-01-26T14:53:16.968Z,9.20
2018-01-26T14:55:44.505Z,9.20
2018-01-26T14:58:12.071Z,9.20
2018-01-26T15:00:39.657Z,9.10
2018-01-26T15:03:07.949Z,9.10
2018-01-26T15:05:35.593Z,9.10
2018-01-26T15:08:03.909Z,9.10
2018-01-26T15:10:31.505Z,9.10
2018-01-26T15:12:59.049Z,9.10
2018-01-26T15:15:26.686Z,9.00
2018-01-26T15:17:54.269Z,9.10
2018-01-26T15:20:21.822Z,9.00
2018-01-26T15:22:49.421Z,9.00
2018-01-26T15:25:17.730Z,9.00
2018-01-26T15:27:45.313Z,9.00
2018-01-26T15:30:12.874Z,9.00
2018-01-26T15:32:40.461Z,9.00
2018-01-26T15:35:08.806Z,9.00
2018-01-26T15:37:36.354Z,9.00
2018-01-26T15:40:03.917Z,9.00
2018-01-26T15:42:31.474Z,9.00
2018-01-26T15:44:59.066Z,9.00
2018-01-26T15:47:26.630Z,8.90
2018-01-26T15:49:54.349Z,9.00
2018-01-26T15:52:21.916Z,8.90
2018-01-26T15:54:49.518Z,8.90
2018-01-26T15:57:17.062Z,8.90
2018-01-26T15:59:44.614Z,8.90
2018-01-26T16:02:12.197Z,9.00
2018-01-26T16:04:40.370Z,8.90
2018-01-26T16:07:07.955Z,8.90
2018-01-26T16:09:36.265Z,8.90
2018-01-26T16:12:03.915Z,8.90
2018-01-26T16:14:31.574Z,8.90
2018-01-26T16:16:59.355Z,8.90
2018-01-26T16:19:26.956Z,8.90
2018-01-26T16:21:54.503Z,8.90
2018-01-26T16:24:22.102Z,8.90
2018-01-26T16:26:49.646Z,8.90
2018-01-26T16:29:18.177Z,9.00
2018-01-26T16:31:46.633Z,8.90
2018-01-26T16:34:14.670Z,9.00
2018-01-26T16:36:42.248Z,9.00
2018-01-26T16:39:09.803Z,9.00
2018-01-26T16:41:38.149Z,9.00
2018-01-26T16:44:05.749Z,9.00
2018-01-26T16:46:34.237Z,9.00
2018-01-26T16:49:02.889Z,9.00
2018-01-26T16:51:30.961Z,9.00
2018-01-26T16:53:58.499Z,9.00
2018-01-26T16:56:26.051Z,9.00
2018-01-26T16:58:53.896Z,9.00
2018-01-26T17:01:21.461Z,9.00
2018-01-26T17:03:49.019Z,9.00
2018-01-26T17:06:16.606Z,9.00
2018-01-26T17:08:44.199Z,9.00
2018-01-26T17:11:12.573Z,9.00
2018-01-26T17:13:41.641Z,9.00
2018-01-26T17:16:09.206Z,9.00
2018-01-26T17:18:36.798Z,9.00
2018-01-26T17:21:04.586Z,9.00
2018-01-26T17:23:32.604Z,9.00
2018-01-26T17:26:00.145Z,9.00
2018-01-26T17:28:27.698Z,9.00
2018-01-26T17:30:55.282Z,8.90
2018-01-26T17:33:22.904Z,8.90
2018-01-26T17:35:50.693Z,8.90
2018-01-26T17:38:18.340Z,8.90
2018-01-26T17:40:46.226Z,8.90
2018-01-26T17:43:13.925Z,8.90
2018-01-26T17:45:42.237Z,8.90
2018-01-26T17:48:09.854Z,8.90
2018-01-26T17:50:37.389Z,8.90
2018-01-26T17:53:04.978Z,8.90
2018-01-26T17:55:33.306Z,8.90
2018-01-26T17:58:01.335Z,8.90
2018-01-26T18:00:29.665Z,8.90
2018-01-26T18:02:57.226Z,8.90
2018-01-26T18:05:24.828Z,8.90
2018-01-26T18:07:52.360Z,8.90
2018-01-26T18:10:19.940Z,8.90
2018-01-26T18:12:47.491Z,8.90
2018-01-26T18:15:15.710Z,8.90
2018-01-26T18:17:43.274Z,8.90
2018-01-26T18:20:10.812Z,8.90
2018-01-26T18:22:38.408Z,8.90
2018-01-26T18:25:05.961Z,8.90
2018-01-26T18:27:33.553Z,8.90
2018-01-26T18:30:01.093Z,8.90
2018-01-26T18:32:29.245Z,8.90
2018-01-26T18:34:56.830Z,8.90
2018-01-26T18:37:24.408Z,8.90
2018-01-26T18:39:52.019Z,8.90
2018-01-26T18:42:19.570Z,8.90
2018-01-26T18:44:47.153Z,9.00
2018-01-26T18:47:14.699Z,9.00
2018-01-26T18:49:42.382Z,9.00
2018-01-26T18:52:09.990Z,8.90
2018-01-26T18:54:37.939Z,8.90
2018-01-26T18:57:05.492Z,8.90
2018-01-26T18:59:33.058Z,8.90
2018-01-26T19:02:00.640Z,8.90
2018-01-26T19:04:28.192Z,8.90
2018-01-26T19:06:56.222Z,8.90
2018-01-26T19:09:23.753Z,8.80
2018-01-26T19:11:51.313Z,8.80
2018-01-26T19:14:18.926Z,8.80
2018-01-26T19:16:46.497Z,8.80
2018-01-26T19:19:14.077Z,8.80
2018-01-26T19:21:41.623Z,8.80
2018-01-26T19:24:10.274Z,8.80
2018-01-26T19:26:37.822Z,8.80
2018-01-26T19:29:05.826Z,8.80
2018-01-26T19:31:33.388Z,8.80
2018-01-26T19:34:00.947Z,8.80
2018-01-26T19:36:28.555Z,8.80
2018-01-26T19:38:56.585Z,8.80
2018-01-26T19:41:24.180Z,8.70
2018-01-26T19:43:51.740Z,8.70
2018-01-26T19:46:19.327Z,8.80
2018-01-26T19:48:47.120Z,8.70
2018-01-26T19:51:15.173Z,8.80
2018-01-26T19:53:42.741Z,8.80
2018-01-26T19:56:10.670Z,8.80
2018-01-26T19:58:38.267Z,8.80
2018-01-26T20:01:05.899Z,8.80
2018-01-26T20:03:33.929Z,8.70
2018-01-26T20:06:07.104Z,8.70
2018-01-26T20:08:40.676Z,8.70
2018-01-26T20:11:08.246Z,8.70
2018-01-26T20:13:36.161Z,8.70
2018-01-26T20:16:03.744Z,8.70
2018-01-26T20:18:31.290Z,8.70
2018-01-26T20:20:58.885Z,8.70
2018-01-26T20:23:26.434Z,8.70
2018-01-26T20:25:54.309Z,8.70
2018-01-26T20:28:21.845Z,8.70
2018-01-26T20:30:49.472Z,8.70
2018-01-26T20:33:17.858Z,8.70
2018-01-26T20:35:45.404Z,8.70
2018-01-26T20:38:13.766Z,8.70
2018-01-26T20:40:41.526Z,8.70
2018-01-26T20:43:09.475Z,8.60
2018-01-26T20:45:37.009Z,8.60
2018-01-26T20:48:04.648Z,8.70
2018-01-26T20:50:33.011Z,8.60
2018-01-26T20:53:00.860Z,8.60
2018-01-26T20:55:28.476Z,8.60
2018-01-26T20:57:56.025Z,8.60
2018-01-26T21:00:24.040Z,8.60
2018-01-26T21:02:51.576Z,8.50
2018-01-26T21:05:19.339Z,8.50
2018-01-26T21:07:46.947Z,8.50
2018-01-26T21:10:15.998Z,8.40
2018-01-26T21:12:43.589Z,8.40
2018-01-26T21:15:11.255Z,8.40
2018-01-26T21:17:38.859Z,8.40
2018-01-26T21:20:06.398Z,8.40
2018-01-26T21:22:35.018Z,8.40
2018-01-26T21:25:02.570Z,8.40
2018-01-26T21:27:30.113Z,8.40
2018-01-26T21:29:57.718Z,8.40
2018-01-26T21:32:25.271Z,8.40
2018-01-26T21:34:53.013Z,8.30
2018-01-26T21:37:20.576Z,8.30
2018-01-26T21:39:48.191Z,8.30
2018-01-26T21:42:15.746Z,8.30
2018-01-26T21:44:43.670Z,8.20
2018-01-26T21:47:11.222Z,8.20
2018-01-26T21:49:38.781Z,8.20
2018-01-26T21:52:06.386Z,8.20
2018-01-26T21:54:33.934Z,8.20
2018-01-26T21:57:01.737Z,8.20
2018-01-26T21:59:30.087Z,8.20
2018-01-26T22:01:58.032Z,8.20
2018-01-26T22:04:31.321Z,8.20
2018-01-26T22:07:04.711Z,8.20
2018-01-26T22:09:32.286Z,8.20
2018-01-26T22:11:59.892Z,8.20
2018-01-26T22:14:28.550Z,8.20
2018-01-26T22:16:56.098Z,8.10
2018-01-26T22:19:23.722Z,8.10
2018-01-26T22:21:51.362Z,8.10
2018-01-26T22:24:20.175Z,8.10
2018-01-26T22:26:47.756Z,8.10
2018-01-26T22:29:15.513Z,8.10
2018-01-26T22:31:43.926Z,8.10
2018-01-26T22:34:11.541Z,8.10
2018-01-26T22:36:39.407Z,8.10
2018-01-26T22:39:07.684Z,8.10
2018-01-26T22:41:35.294Z,8.10
2018-01-26T22:44:02.843Z,8.10
2018-01-26T22:46:30.803Z,8.10
2018-01-26T22:48:58.391Z,8.10
2018-01-26T22:51:25.930Z,8.10
2018-01-26T22:53:53.796Z,8.10
2018-01-26T22:56:21.365Z,8.10
2018-01-26T22:58:48.971Z,8.10
2018-01-26T23:01:16.545Z,8.10
2018-01-26T23:03:44.440Z,8.10
2018-01-26T23:06:12.122Z,8.10
2018-01-26T23:08:39.667Z,8.10
2018-01-26T23:11:08.765Z,8.10
2018-01-26T23:13:36.319Z,8.10
2018-01-26T23:16:03.904Z,8.10
2018-01-26T23:18:31.458Z,8.10
2018-01-26T23:21:00.133Z,8.10
2018-01-26T23:23:27.842Z,8.10
2018-01-26T23:25:55.407Z,8.10
2018-01-26T23:28:23.060Z,8.10
2018-01-26T23:30:50.604Z,8.10
2018-01-26T23:33:18.966Z,8.10
2018-01-26T23:35:46.527Z,8.10
2018-01-26T23:38:15.024Z,8.10
2018-01-26T23:40:44.222Z,8.10
2018-01-26T23:43:12.136Z,8.10
2018-01-26T23:45:39.685Z,8.10
2018-01-26T23:48:07.232Z,8.10
2018-01-26T23:50:34.880Z,8.10
2018-01-26T23:53:02.649Z,8.10
2018-01-26T23:55:31.238Z,8.10
2018-01-26T23:57:58.789Z,8.10
